createdAt,value
2019-03-21T00:00:34.148Z,0
2019-03-21T00:03:28.601Z,0
2019-03-21T00:06:27.976Z,0
2019-03-21T00:09:28.517Z,0
2019-03-21T00:15:32.625Z,0
2019-03-21T00:18:28.113Z,0
2019-03-21T00:21:28.685Z,0
2019-03-21T00:24:28.022Z,0
2019-03-21T00:27:28.488Z,0
2019-03-21T00:30:29.100Z,0
2019-03-21T00:33:28.547Z,0
2019-03-21T00:36:29.129Z,0
2019-03-21T00:39:32.682Z,0
2019-03-21T00:42:28.640Z,0
2019-03-21T00:45:28.457Z,0
2019-03-21T00:48:28.954Z,0
2019-03-21T00:51:28.381Z,0
2019-03-21T00:57:28.090Z,0
2019-03-21T01:00:31.374Z,0
2019-03-21T01:03:28.911Z,0
2019-03-21T01:06:28.465Z,0
2019-03-21T01:09:29.167Z,0
2019-03-21T01:24:28.981Z,0
2019-03-21T01:27:28.587Z,0
2019-03-21T01:30:28.164Z,0
2019-03-21T01:33:28.577Z,0
2019-03-21T01:45:29.062Z,0
2019-03-21T01:48:28.757Z,0
2019-03-21T01:51:28.447Z,0
2019-03-21T01:54:29.067Z,0
2019-03-21T01:57:28.764Z,0
2019-03-21T02:00:31.177Z,0
2019-03-21T02:03:28.729Z,0
2019-03-21T02:09:28.557Z,0
2019-03-21T02:12:28.226Z,0
2019-03-21T02:15:28.945Z,0
2019-03-21T02:18:28.396Z,0
2019-03-21T02:21:28.882Z,0
2019-03-21T02:24:28.295Z,0
2019-03-21T02:27:28.794Z,0
2019-03-21T02:30:32.040Z,0
2019-03-21T02:33:31.071Z,0
2019-03-21T02:36:28.562Z,0
2019-03-21T02:39:27.987Z,0
2019-03-21T02:42:28.368Z,0
2019-03-21T02:45:29.035Z,0
2019-03-21T02:48:28.410Z,0
2019-03-21T02:51:28.969Z,0
2019-03-21T02:57:28.693Z,0
2019-03-21T03:00:29.202Z,0
2019-03-21T03:03:28.872Z,0
2019-03-21T03:06:28.474Z,0
2019-03-21T03:09:29.106Z,0
2019-03-21T03:12:28.691Z,0
2019-03-21T03:15:36.842Z,0
2019-03-21T03:18:28.462Z,0
2019-03-21T03:21:28.911Z,0
2019-03-21T03:24:31.386Z,0
2019-03-21T03:27:28.827Z,0
2019-03-21T03:30:28.447Z,0
2019-03-21T03:33:29.126Z,0
2019-03-21T03:36:28.747Z,0
2019-03-21T03:39:28.523Z,0
2019-03-21T03:42:29.124Z,0
2019-03-21T03:45:37.331Z,0
2019-03-21T03:48:29.292Z,0
2019-03-21T03:51:28.958Z,0
2019-03-21T03:54:28.544Z,0
2019-03-21T03:57:28.030Z,0
2019-03-21T04:00:28.695Z,0
2019-03-21T04:03:28.353Z,0
2019-03-21T04:06:28.970Z,0
2019-03-21T04:09:29.178Z,0
2019-03-21T04:12:28.852Z,0
2019-03-21T04:15:28.504Z,0
2019-03-21T04:18:28.179Z,0
2019-03-21T04:21:28.868Z,0
2019-03-21T04:24:28.688Z,0
2019-03-21T04:27:28.349Z,0
2019-03-21T04:30:28.891Z,0
2019-03-21T04:33:28.585Z,0
2019-03-21T04:36:28.130Z,0
2019-03-21T04:39:28.789Z,0
2019-03-21T04:42:28.250Z,0
2019-03-21T04:45:29.022Z,0
2019-03-21T04:48:28.511Z,0
2019-03-21T04:51:29.058Z,0
2019-03-21T04:54:28.623Z,0
2019-03-21T04:57:19.317Z,0
2019-03-21T05:00:30.997Z,0
2019-03-21T05:03:28.912Z,0
2019-03-21T05:06:24.680Z,0
2019-03-21T05:12:28.379Z,0
2019-03-21T05:15:32.512Z,0
2019-03-21T05:18:31.399Z,1
2019-03-21T05:21:28.875Z,0
2019-03-21T05:24:28.520Z,0
2019-03-21T05:27:19.416Z,3
2019-03-21T05:30:34.104Z,3
2019-03-21T05:33:28.910Z,0
2019-03-21T05:36:28.729Z,0
2019-03-21T05:39:28.460Z,0
2019-03-21T05:42:28.483Z,0
2019-03-21T05:45:28.657Z,0
2019-03-21T05:48:28.411Z,0
2019-03-21T05:51:20.162Z,8
2019-03-21T05:54:28.919Z,11
2019-03-21T05:57:28.580Z,23
2019-03-21T06:00:33.110Z,27
2019-03-21T06:03:19.822Z,18
2019-03-21T06:06:38.957Z,23
2019-03-21T06:09:29.081Z,37
2019-03-21T06:12:28.975Z,30
2019-03-21T06:15:30.679Z,36
2019-03-21T06:18:35.668Z,41
2019-03-21T06:21:32.963Z,47
2019-03-21T06:24:36.778Z,61
2019-03-21T06:27:31.724Z,63
2019-03-21T06:30:28.371Z,46
2019-03-21T06:33:29.063Z,74
2019-03-21T06:36:28.601Z,92
2019-03-21T06:39:28.206Z,101
2019-03-21T06:42:29.468Z,102
2019-03-21T06:45:28.071Z,113
2019-03-21T06:48:28.733Z,136
2019-03-21T06:51:28.201Z,144
2019-03-21T06:54:28.754Z,144
2019-03-21T06:57:28.376Z,147
2019-03-21T07:00:28.906Z,142
2019-03-21T07:03:29.769Z,156
2019-03-21T07:06:28.492Z,176
2019-03-21T07:09:29.362Z,230
2019-03-21T07:12:29.039Z,227
2019-03-21T07:15:28.594Z,187
2019-03-21T07:18:28.312Z,160
2019-03-21T07:21:28.940Z,188
2019-03-21T07:24:28.589Z,263
2019-03-21T07:27:28.030Z,297
2019-03-21T07:30:28.543Z,289
2019-03-21T07:33:28.355Z,291
2019-03-21T07:36:29.204Z,284
2019-03-21T07:39:28.893Z,350
2019-03-21T07:42:28.470Z,423
2019-03-21T07:45:28.096Z,538
2019-03-21T07:48:28.681Z,600
2019-03-21T07:51:28.194Z,562
2019-03-21T07:54:28.846Z,505
2019-03-21T07:57:28.303Z,520
2019-03-21T08:00:28.918Z,592
2019-03-21T08:03:28.556Z,604
2019-03-21T08:06:28.214Z,371
2019-03-21T08:09:28.959Z,406
2019-03-21T08:12:28.813Z,361
2019-03-21T08:15:28.574Z,355
2019-03-21T08:18:28.277Z,275
2019-03-21T08:21:28.873Z,522
2019-03-21T08:24:28.508Z,580
2019-03-21T08:27:28.136Z,569
2019-03-21T08:30:33.240Z,576
2019-03-21T08:33:28.899Z,525
2019-03-21T08:36:28.519Z,478
2019-03-21T08:39:28.204Z,481
2019-03-21T08:42:28.750Z,369
2019-03-21T08:45:28.366Z,272
2019-03-21T08:48:29.144Z,83
2019-03-21T08:51:28.657Z,256
2019-03-21T08:54:28.417Z,97
2019-03-21T08:57:29.020Z,14
2019-03-21T09:00:33.993Z,0
2019-03-21T09:03:28.306Z,151
2019-03-21T09:06:34.000Z,0
2019-03-21T09:09:28.568Z,64
2019-03-21T09:12:28.248Z,0
2019-03-21T09:15:28.908Z,97
2019-03-21T09:18:28.633Z,8
2019-03-21T09:21:33.218Z,312
2019-03-21T09:24:28.932Z,166
2019-03-21T09:27:28.566Z,217
2019-03-21T09:30:28.173Z,211
2019-03-21T09:33:28.769Z,277
2019-03-21T09:36:28.833Z,118
2019-03-21T09:39:28.422Z,0
2019-03-21T09:42:29.153Z,158
2019-03-21T09:45:28.970Z,214
2019-03-21T09:48:28.701Z,77
2019-03-21T09:51:31.116Z,384
2019-03-21T09:54:28.887Z,377
2019-03-21T09:57:28.716Z,339
2019-03-21T10:00:32.254Z,486
2019-03-21T10:03:28.762Z,358
2019-03-21T10:06:28.353Z,161
2019-03-21T10:09:29.219Z,332
2019-03-21T10:12:28.950Z,0
2019-03-21T10:15:28.688Z,69
2019-03-21T10:18:28.568Z,522
2019-03-21T10:21:28.247Z,97
2019-03-21T10:24:28.765Z,445
2019-03-21T10:27:28.452Z,138
2019-03-21T10:30:38.809Z,326
2019-03-21T10:33:28.501Z,436
2019-03-21T10:36:29.491Z,0
2019-03-21T10:39:28.147Z,258
2019-03-21T10:42:28.632Z,482
2019-03-21T10:45:28.423Z,158
2019-03-21T10:48:29.067Z,155
2019-03-21T10:51:28.819Z,152
2019-03-21T10:54:28.664Z,150
2019-03-21T10:57:28.300Z,153
2019-03-21T11:00:29.072Z,163
2019-03-21T11:03:28.836Z,215
2019-03-21T11:06:28.594Z,0
2019-03-21T11:09:28.279Z,350
2019-03-21T11:12:28.952Z,289
2019-03-21T11:15:28.625Z,318
2019-03-21T11:18:36.069Z,150
2019-03-21T11:21:28.197Z,0
2019-03-21T11:24:28.819Z,339
2019-03-21T11:27:28.589Z,297
2019-03-21T11:30:34.065Z,0
2019-03-21T11:33:28.697Z,0
2019-03-21T11:36:37.712Z,145
2019-03-21T11:39:28.897Z,126
2019-03-21T11:42:30.014Z,135
2019-03-21T11:45:28.705Z,133
2019-03-21T11:48:28.372Z,121
2019-03-21T11:51:28.998Z,132
2019-03-21T11:54:28.511Z,134
2019-03-21T11:57:29.059Z,116
2019-03-21T12:00:28.676Z,115
2019-03-21T12:03:28.921Z,126
2019-03-21T12:06:28.652Z,114
2019-03-21T12:09:28.200Z,124
2019-03-21T12:12:29.021Z,123
2019-03-21T12:15:28.723Z,110
2019-03-21T12:18:28.291Z,121
2019-03-21T12:21:28.847Z,121
2019-03-21T12:24:28.468Z,108
2019-03-21T12:27:28.991Z,106
2019-03-21T12:30:34.816Z,106
2019-03-21T12:33:29.968Z,117
2019-03-21T12:36:28.527Z,116
2019-03-21T12:39:29.069Z,104
2019-03-21T12:42:28.868Z,103
2019-03-21T12:45:28.665Z,103
2019-03-21T12:48:28.331Z,113
2019-03-21T12:51:29.143Z,100
2019-03-21T12:54:28.894Z,111
2019-03-21T12:57:28.798Z,110
2019-03-21T13:00:39.501Z,97
2019-03-21T13:03:28.259Z,108
2019-03-21T13:06:28.945Z,95
2019-03-21T13:09:28.549Z,107
2019-03-21T13:12:28.360Z,105
2019-03-21T13:15:30.164Z,94
2019-03-21T13:18:28.068Z,105
2019-03-21T13:21:28.740Z,105
2019-03-21T13:24:32.556Z,91
2019-03-21T13:27:28.525Z,91
2019-03-21T13:30:28.063Z,91
2019-03-21T13:33:28.575Z,90
2019-03-21T13:36:28.375Z,101
2019-03-21T13:39:29.173Z,88
2019-03-21T13:42:28.743Z,87
2019-03-21T13:45:28.373Z,87
2019-03-21T13:48:29.062Z,98
2019-03-21T13:51:28.770Z,84
2019-03-21T13:54:28.350Z,96
2019-03-21T13:57:28.903Z,84
2019-03-21T14:00:28.736Z,82
2019-03-21T14:03:38.612Z,94
2019-03-21T14:06:28.338Z,93
2019-03-21T14:09:28.816Z,80
2019-03-21T14:12:28.480Z,79
2019-03-21T14:15:28.267Z,89
2019-03-21T14:18:29.048Z,76
2019-03-21T14:21:28.705Z,86
2019-03-21T14:24:28.271Z,73
2019-03-21T14:27:28.892Z,72
2019-03-21T14:30:28.620Z,82
2019-03-21T14:33:28.216Z,81
2019-03-21T14:36:29.021Z,67
2019-03-21T14:39:28.937Z,76
2019-03-21T14:42:28.797Z,72
2019-03-21T14:45:28.540Z,58
2019-03-21T14:48:28.203Z,67
2019-03-21T14:51:28.996Z,65
2019-03-21T14:54:28.568Z,54
2019-03-21T14:57:28.204Z,69
2019-03-21T15:00:28.843Z,68
2019-03-21T15:03:28.472Z,69
2019-03-21T15:06:29.093Z,70
2019-03-21T15:09:28.722Z,70
2019-03-21T15:12:29.778Z,55
2019-03-21T15:15:28.978Z,55
2019-03-21T15:18:28.757Z,65
2019-03-21T15:21:28.542Z,64
2019-03-21T15:24:28.328Z,51
2019-03-21T15:27:29.049Z,50
2019-03-21T15:30:28.841Z,48
2019-03-21T15:33:28.338Z,56
2019-03-21T15:36:30.784Z,44
2019-03-21T15:39:28.353Z,44
2019-03-21T15:42:29.034Z,54
2019-03-21T15:45:36.596Z,41
2019-03-21T15:48:28.257Z,38
2019-03-21T15:51:28.806Z,38
2019-03-21T15:54:28.534Z,47
2019-03-21T15:57:28.070Z,33
2019-03-21T16:00:34.364Z,32
2019-03-21T16:03:28.315Z,42
2019-03-21T16:06:29.260Z,29
2019-03-21T16:09:29.039Z,38
2019-03-21T16:12:28.710Z,37
2019-03-21T16:15:28.300Z,24
2019-03-21T16:18:28.317Z,33
2019-03-21T16:21:28.992Z,32
2019-03-21T16:24:28.616Z,31
2019-03-21T16:27:28.190Z,29
2019-03-21T16:30:28.994Z,28
2019-03-21T16:33:28.590Z,16
2019-03-21T16:36:28.309Z,25
2019-03-21T16:39:28.985Z,12
2019-03-21T16:42:28.905Z,11
2019-03-21T16:45:28.485Z,21
2019-03-21T16:48:28.367Z,9
2019-03-21T16:51:29.020Z,8
2019-03-21T16:54:30.872Z,18
2019-03-21T16:57:28.520Z,17
2019-03-21T17:00:31.358Z,4
2019-03-21T17:03:28.928Z,3
2019-03-21T17:06:28.607Z,2
2019-03-21T17:09:28.233Z,12
2019-03-21T17:12:29.016Z,0
2019-03-21T17:15:28.585Z,0
2019-03-21T17:18:28.445Z,9
2019-03-21T17:21:29.076Z,8
2019-03-21T17:24:29.771Z,0
2019-03-21T17:27:28.729Z,0
2019-03-21T17:30:28.356Z,5
2019-03-21T17:33:29.044Z,0
2019-03-21T17:36:28.877Z,3
2019-03-21T17:39:28.583Z,0
2019-03-21T17:42:28.289Z,2
2019-03-21T17:45:28.820Z,1
2019-03-21T17:48:28.408Z,0
2019-03-21T17:51:29.007Z,0
2019-03-21T17:54:40.635Z,0
2019-03-21T17:57:34.315Z,0
2019-03-21T18:00:29.171Z,0
2019-03-21T18:03:28.834Z,0
2019-03-21T18:06:28.512Z,0
2019-03-21T18:09:28.085Z,0
2019-03-21T18:12:28.926Z,0
2019-03-21T18:15:28.980Z,0
2019-03-21T18:18:28.781Z,0
2019-03-21T18:21:28.545Z,0
2019-03-21T18:24:28.448Z,0
2019-03-21T18:27:29.117Z,0
2019-03-21T18:30:28.654Z,0
2019-03-21T18:33:28.220Z,0
2019-03-21T18:36:29.023Z,0
2019-03-21T18:39:28.978Z,0
2019-03-21T18:42:28.737Z,0
2019-03-21T18:45:28.595Z,0
2019-03-21T18:48:28.154Z,0
2019-03-21T18:51:28.800Z,0
2019-03-21T18:54:19.537Z,0
2019-03-21T18:57:28.170Z,0
2019-03-21T19:00:28.865Z,0
2019-03-21T19:03:28.578Z,0
2019-03-21T19:06:28.196Z,0
2019-03-21T19:09:28.794Z,0
2019-03-21T19:12:28.570Z,0
2019-03-21T19:15:28.211Z,0
2019-03-21T19:18:29.189Z,0
2019-03-21T19:21:28.816Z,0
2019-03-21T19:24:28.367Z,0
2019-03-21T19:27:29.034Z,0
2019-03-21T19:30:28.951Z,0
2019-03-21T19:33:28.564Z,0
2019-03-21T19:36:28.619Z,0
2019-03-21T19:39:28.424Z,0
2019-03-21T19:42:28.934Z,0
2019-03-21T19:45:28.677Z,0
2019-03-21T19:48:28.505Z,0
2019-03-21T19:51:28.152Z,0
2019-03-21T19:54:29.070Z,0
2019-03-21T19:57:28.900Z,0
2019-03-21T20:00:28.561Z,0
2019-03-21T20:03:28.191Z,0
2019-03-21T20:06:28.823Z,0
2019-03-21T20:09:28.623Z,0
2019-03-21T20:12:28.411Z,0
2019-03-21T20:15:29.037Z,0
2019-03-21T20:18:28.730Z,0
2019-03-21T20:21:28.593Z,0
2019-03-21T20:24:28.290Z,0
2019-03-21T20:27:29.169Z,0
2019-03-21T20:30:28.981Z,0
2019-03-21T20:33:28.770Z,0
2019-03-21T20:36:28.396Z,0
2019-03-21T20:39:20.142Z,0
2019-03-21T20:42:29.008Z,0
2019-03-21T20:45:28.822Z,0
2019-03-21T20:48:31.504Z,0
2019-03-21T20:51:28.402Z,0
2019-03-21T20:54:29.112Z,0
2019-03-21T20:57:19.750Z,0
2019-03-21T21:00:19.546Z,0
2019-03-21T21:03:28.328Z,0
2019-03-21T21:06:29.035Z,0
2019-03-21T21:09:28.681Z,0
2019-03-21T21:12:28.358Z,0
2019-03-21T21:15:28.913Z,0
2019-03-21T21:18:28.612Z,0
2019-03-21T21:21:28.274Z,0
2019-03-21T21:24:28.840Z,0
2019-03-21T21:27:28.450Z,0
2019-03-21T21:30:28.964Z,0
2019-03-21T21:33:28.564Z,0
2019-03-21T21:36:35.561Z,0
2019-03-21T21:39:28.106Z,0
2019-03-21T21:42:28.836Z,0
2019-03-21T21:45:28.472Z,0
2019-03-21T21:48:29.002Z,0
2019-03-21T21:51:28.566Z,0
2019-03-21T21:54:28.176Z,0
2019-03-21T21:57:28.779Z,0
2019-03-21T22:00:28.350Z,0
2019-03-21T22:03:28.944Z,0
2019-03-21T22:06:28.526Z,0
2019-03-21T22:09:28.906Z,0
2019-03-21T22:12:28.425Z,0
2019-03-21T22:15:28.960Z,0
2019-03-21T22:18:28.603Z,0
2019-03-21T22:21:27.962Z,0
2019-03-21T22:24:28.634Z,0
2019-03-21T22:27:19.358Z,0
2019-03-21T22:30:29.055Z,0
2019-03-21T22:33:28.914Z,0
2019-03-21T22:36:28.570Z,0
2019-03-21T22:39:28.162Z,0
2019-03-21T22:42:28.849Z,0
2019-03-21T22:45:28.452Z,0
2019-03-21T22:48:28.968Z,0
2019-03-21T22:51:28.345Z,0
2019-03-21T22:54:29.040Z,0
2019-03-21T22:57:28.527Z,0
2019-03-21T23:00:36.205Z,0
2019-03-21T23:03:28.814Z,0
2019-03-21T23:06:28.384Z,0
2019-03-21T23:09:20.102Z,0
2019-03-21T23:12:28.865Z,0
2019-03-21T23:15:28.497Z,0
2019-03-21T23:18:19.168Z,0
2019-03-21T23:21:19.771Z,0
2019-03-21T23:24:28.387Z,0
2019-03-21T23:27:28.761Z,0
2019-03-21T23:30:28.383Z,0
2019-03-21T23:33:28.891Z,0
2019-03-21T23:36:28.472Z,0
2019-03-21T23:39:28.930Z,0
2019-03-21T23:42:28.360Z,0
2019-03-21T23:45:28.842Z,0
2019-03-21T23:48:28.634Z,0
2019-03-21T23:51:28.091Z,0
2019-03-21T23:54:28.674Z,0
2019-03-21T23:57:28.172Z,0
